sensor_id;sensor_type;location;lat;lon;timestamp;temperature;humidity
52435;DHT22;38354;52.892;6.148;2023-08-08T03:02:08;14.50;99.90
52435;DHT22;38354;52.892;6.148;2023-08-08T03:04:33;14.40;99.90
52435;DHT22;38354;52.892;6.148;2023-08-08T03:06:59;14.40;99.90
52435;DHT22;38354;52.892;6.148;2023-08-08T03:09:27;14.30;99.90
52435;DHT22;38354;52.892;6.148;2023-08-08T03:11:53;14.30;99.90
52435;DHT22;38354;52.892;6.148;2023-08-08T03:14:18;14.30;99.90
52435;DHT22;38354;52.892;6.148;2023-08-08T03:16:44;14.30;99.90
52435;DHT22;38354;52.892;6.148;2023-08-08T03:19:10;14.30;99.90
52435;DHT22;38354;52.892;6.148;2023-08-08T03:21:35;14.30;99.90
52435;DHT22;38354;52.892;6.148;2023-08-08T03:24:01;14.30;99.90
52435;DHT22;38354;52.892;6.148;2023-08-08T03:26:26;14.20;99.90
52435;DHT22;38354;52.892;6.148;2023-08-08T03:28:52;14.20;99.90
52435;DHT22;38354;52.892;6.148;2023-08-08T03:31:19;14.20;99.90
52435;DHT22;38354;52.892;6.148;2023-08-08T03:33:44;14.20;99.90
52435;DHT22;38354;52.892;6.148;2023-08-08T03:36:10;14.20;99.90
52435;DHT22;38354;52.892;6.148;2023-08-08T03:38:35;14.20;99.90
52435;DHT22;38354;52.892;6.148;2023-08-08T03:41:03;14.10;99.90
52435;DHT22;38354;52.892;6.148;2023-08-08T03:43:29;14.10;99.90
52435;DHT22;38354;52.892;6.148;2023-08-08T03:45:54;14.10;99.90
52435;DHT22;38354;52.892;6.148;2023-08-08T03:48:20;14.10;99.90
52435;DHT22;38354;52.892;6.148;2023-08-08T03:50:45;14.10;99.90
52435;DHT22;38354;52.892;6.148;2023-08-08T03:53:11;14.10;99.90
52435;DHT22;38354;52.892;6.148;2023-08-08T03:55:37;14.10;99.90
52435;DHT22;38354;52.892;6.148;2023-08-08T03:58:03;14.00;99.90
52435;DHT22;38354;52.892;6.148;2023-08-08T04:00:28;14.00;99.90
52435;DHT22;38354;52.892;6.148;2023-08-08T04:02:54;14.00;99.90
52435;DHT22;38354;52.892;6.148;2023-08-08T04:05:20;14.00;99.90
52435;DHT22;38354;52.892;6.148;2023-08-08T04:07:45;14.00;99.90
52435;DHT22;38354;52.892;6.148;2023-08-08T04:10:11;14.00;99.90
52435;DHT22;38354;52.892;6.148;2023-08-08T04:12:36;14.00;99.90
52435;DHT22;38354;52.892;6.148;2023-08-08T04:15:02;14.00;99.90
52435;DHT22;38354;52.892;6.148;2023-08-08T04:17:28;14.00;99.90
52435;DHT22;38354;52.892;6.148;2023-08-08T04:19:54;14.00;99.90
52435;DHT22;38354;52.892;6.148;2023-08-08T04:22:19;14.00;99.90
52435;DHT22;38354;52.892;6.148;2023-08-08T04:24:45;14.00;99.90
52435;DHT22;38354;52.892;6.148;2023-08-08T04:27:11;14.10;99.90
52435;DHT22;38354;52.892;6.148;2023-08-08T04:29:36;14.10;99.90
52435;DHT22;38354;52.892;6.148;2023-08-08T04:32:02;14.20;99.90
52435;DHT22;38354;52.892;6.148;2023-08-08T04:34:27;14.20;99.90
52435;DHT22;38354;52.892;6.148;2023-08-08T04:36:53;14.20;99.90
52435;DHT22;38354;52.892;6.148;2023-08-08T04:39:18;14.20;99.90
52435;DHT22;38354;52.892;6.148;2023-08-08T04:41:44;14.20;99.90
52435;DHT22;38354;52.892;6.148;2023-08-08T04:44:09;14.20;99.90
52435;DHT22;38354;52.892;6.148;2023-08-08T04:46:35;14.20;99.90
52435;DHT22;38354;52.892;6.148;2023-08-08T04:49:00;14.20;99.90
52435;DHT22;38354;52.892;6.148;2023-08-08T04:51:26;14.20;99.90
52435;DHT22;38354;52.892;6.148;2023-08-08T04:53:51;14.20;99.90
52435;DHT22;38354;52.892;6.148;2023-08-08T04:56:17;14.20;99.90
52435;DHT22;38354;52.892;6.148;2023-08-08T04:58:42;14.20;99.90
52435;DHT22;38354;52.892;6.148;2023-08-08T05:01:08;14.20;99.90
52435;DHT22;38354;52.892;6.148;2023-08-08T05:03:37;14.10;99.90
52435;DHT22;38354;52.892;6.148;2023-08-08T05:06:02;14.10;99.90
52435;DHT22;38354;52.892;6.148;2023-08-08T05:08:28;14.00;99.90
52435;DHT22;38354;52.892;6.148;2023-08-08T05:10:53;13.90;99.90
52435;DHT22;38354;52.892;6.148;2023-08-08T05:13:19;13.90;99.90
52435;DHT22;38354;52.892;6.148;2023-08-08T05:15:44;13.80;99.90
52435;DHT22;38354;52.892;6.148;2023-08-08T05:18:10;13.70;99.90
52435;DHT22;38354;52.892;6.148;2023-08-08T05:20:35;13.70;99.90
52435;DHT22;38354;52.892;6.148;2023-08-08T05:23:01;13.60;99.90
52435;DHT22;38354;52.892;6.148;2023-08-08T05:25:27;13.60;99.90
52435;DHT22;38354;52.892;6.148;2023-08-08T05:27:52;13.60;99.90
52435;DHT22;38354;52.892;6.148;2023-08-08T05:30:18;13.50;99.90
52435;DHT22;38354;52.892;6.148;2023-08-08T05:32:44;13.50;99.90
52435;DHT22;38354;52.892;6.148;2023-08-08T05:35:09;13.50;99.90
52435;DHT22;38354;52.892;6.148;2023-08-08T05:37:35;13.50;99.90
52435;DHT22;38354;52.892;6.148;2023-08-08T05:40:00;13.50;99.90
52435;DHT22;38354;52.892;6.148;2023-08-08T05:42:26;13.50;99.90
52435;DHT22;38354;52.892;6.148;2023-08-08T05:44:52;13.50;99.90
52435;DHT22;38354;52.892;6.148;2023-08-08T05:47:17;13.60;99.90
52435;DHT22;38354;52.892;6.148;2023-08-08T05:49:43;13.70;99.90
52435;DHT22;38354;52.892;6.148;2023-08-08T05:52:08;13.70;99.90
52435;DHT22;38354;52.892;6.148;2023-08-08T05:54:34;13.80;99.90
52435;DHT22;38354;52.892;6.148;2023-08-08T05:56:59;13.90;99.90
52435;DHT22;38354;52.892;6.148;2023-08-08T05:59:25;14.00;99.90
52435;DHT22;38354;52.892;6.148;2023-08-08T06:01:51;14.00;99.90
52435;DHT22;38354;52.892;6.148;2023-08-08T06:04:17;14.10;99.90
52435;DHT22;38354;52.892;6.148;2023-08-08T06:06:42;14.10;99.90
52435;DHT22;38354;52.892;6.148;2023-08-08T06:09:08;14.20;99.90
52435;DHT22;38354;52.892;6.148;2023-08-08T06:11:36;14.30;99.90
52435;DHT22;38354;52.892;6.148;2023-08-08T06:14:02;14.40;99.90
52435;DHT22;38354;52.892;6.148;2023-08-08T06:16:28;14.40;99.90
52435;DHT22;38354;52.892;6.148;2023-08-08T06:18:53;14.50;99.90
52435;DHT22;38354;52.892;6.148;2023-08-08T06:21:19;14.60;99.90
52435;DHT22;38354;52.892;6.148;2023-08-08T06:23:44;14.70;99.90
52435;DHT22;38354;52.892;6.148;2023-08-08T06:26:10;14.80;99.90
52435;DHT22;38354;52.892;6.148;2023-08-08T06:28:35;14.90;99.90
52435;DHT22;38354;52.892;6.148;2023-08-08T06:31:01;14.90;99.90
52435;DHT22;38354;52.892;6.148;2023-08-08T06:33:27;14.90;99.90
52435;DHT22;38354;52.892;6.148;2023-08-08T06:35:54;14.90;99.90
52435;DHT22;38354;52.892;6.148;2023-08-08T06:38:19;14.90;99.90
52435;DHT22;38354;52.892;6.148;2023-08-08T06:40:45;15.00;99.90
52435;DHT22;38354;52.892;6.148;2023-08-08T06:43:10;15.00;99.90
52435;DHT22;38354;52.892;6.148;2023-08-08T06:45:36;15.00;99.90
52435;DHT22;38354;52.892;6.148;2023-08-08T06:48:02;15.00;99.90
52435;DHT22;38354;52.892;6.148;2023-08-08T06:50:28;15.10;99.90
52435;DHT22;38354;52.892;6.148;2023-08-08T06:52:53;15.10;99.90
52435;DHT22;38354;52.892;6.148;2023-08-08T06:55:19;15.20;99.90
52435;DHT22;38354;52.892;6.148;2023-08-08T06:57:44;15.30;99.90
52435;DHT22;38354;52.892;6.148;2023-08-08T07:00:10;15.30;99.90
52435;DHT22;38354;52.892;6.148;2023-08-08T07:02:37;15.30;99.90
52435;DHT22;38354;52.892;6.148;2023-08-08T07:05:03;15.40;99.90
52435;DHT22;38354;52.892;6.148;2023-08-08T07:07:29;15.40;99.90
52435;DHT22;38354;52.892;6.148;2023-08-08T07:09:56;15.40;99.90
52435;DHT22;38354;52.892;6.148;2023-08-08T07:12:21;15.50;99.90
52435;DHT22;38354;52.892;6.148;2023-08-08T07:14:47;15.60;99.90
52435;DHT22;38354;52.892;6.148;2023-08-08T07:17:12;15.60;99.90
52435;DHT22;38354;52.892;6.148;2023-08-08T07:19:38;15.70;99.90
52435;DHT22;38354;52.892;6.148;2023-08-08T07:22:03;15.80;99.90
52435;DHT22;38354;52.892;6.148;2023-08-08T07:24:29;15.90;99.90
52435;DHT22;38354;52.892;6.148;2023-08-08T07:26:55;16.00;99.90
52435;DHT22;38354;52.892;6.148;2023-08-08T07:29:20;16.10;99.90
52435;DHT22;38354;52.892;6.148;2023-08-08T07:31:46;16.10;99.90
52435;DHT22;38354;52.892;6.148;2023-08-08T07:34:12;16.20;99.90
52435;DHT22;38354;52.892;6.148;2023-08-08T07:36:37;16.20;99.90
52435;DHT22;38354;52.892;6.148;2023-08-08T07:39:03;16.10;99.90
52435;DHT22;38354;52.892;6.148;2023-08-08T07:41:29;16.10;99.90
52435;DHT22;38354;52.892;6.148;2023-08-08T07:43:55;16.00;99.90
52435;DHT22;38354;52.892;6.148;2023-08-08T07:46:20;16.10;99.90
52435;DHT22;38354;52.892;6.148;2023-08-08T07:48:46;16.00;99.90
52435;DHT22;38354;52.892;6.148;2023-08-08T07:51:11;16.10;99.90
52435;DHT22;38354;52.892;6.148;2023-08-08T07:53:37;16.10;99.90
52435;DHT22;38354;52.892;6.148;2023-08-08T07:56:02;16.10;99.90
52435;DHT22;38354;52.892;6.148;2023-08-08T07:58:28;16.10;99.90
52435;DHT22;38354;52.892;6.148;2023-08-08T08:00:53;16.20;99.90
52435;DHT22;38354;52.892;6.148;2023-08-08T08:03:19;16.20;99.90
52435;DHT22;38354;52.892;6.148;2023-08-08T08:05:45;16.20;99.90
52435;DHT22;38354;52.892;6.148;2023-08-08T08:08:10;16.20;99.90
52435;DHT22;38354;52.892;6.148;2023-08-08T08:10:36;16.20;99.90
52435;DHT22;38354;52.892;6.148;2023-08-08T08:13:02;16.20;99.90
52435;DHT22;38354;52.892;6.148;2023-08-08T08:15:27;16.30;99.90
52435;DHT22;38354;52.892;6.148;2023-08-08T08:17:53;16.30;99.90
52435;DHT22;38354;52.892;6.148;2023-08-08T08:20:19;16.30;99.90
52435;DHT22;38354;52.892;6.148;2023-08-08T08:22:44;16.30;99.90
52435;DHT22;38354;52.892;6.148;2023-08-08T08:25:10;16.40;99.90
52435;DHT22;38354;52.892;6.148;2023-08-08T08:27:36;16.40;99.90
52435;DHT22;38354;52.892;6.148;2023-08-08T08:30:03;16.40;99.90
52435;DHT22;38354;52.892;6.148;2023-08-08T08:32:31;16.40;99.90
52435;DHT22;38354;52.892;6.148;2023-08-08T08:34:57;16.40;99.90
52435;DHT22;38354;52.892;6.148;2023-08-08T08:37:22;16.40;99.90
52435;DHT22;38354;52.892;6.148;2023-08-08T08:39:48;16.40;99.90
52435;DHT22;38354;52.892;6.148;2023-08-08T08:42:14;16.30;99.90
52435;DHT22;38354;52.892;6.148;2023-08-08T08:44:40;16.30;99.90
52435;DHT22;38354;52.892;6.148;2023-08-08T08:47:07;16.40;99.90
52435;DHT22;38354;52.892;6.148;2023-08-08T08:49:36;16.50;99.90
52435;DHT22;38354;52.892;6.148;2023-08-08T08:52:03;16.50;99.90
52435;DHT22;38354;52.892;6.148;2023-08-08T08:54:30;16.50;99.90
52435;DHT22;38354;52.892;6.148;2023-08-08T08:56:56;16.60;99.90
52435;DHT22;38354;52.892;6.148;2023-08-08T08:59:22;16.60;99.90
52435;DHT22;38354;52.892;6.148;2023-08-08T09:01:49;16.70;99.90
52435;DHT22;38354;52.892;6.148;2023-08-08T09:04:15;16.70;99.90
52435;DHT22;38354;52.892;6.148;2023-08-08T09:06:42;16.70;99.90
52435;DHT22;38354;52.892;6.148;2023-08-08T09:09:08;16.70;99.90
52435;DHT22;38354;52.892;6.148;2023-08-08T09:11:33;16.60;99.90
52435;DHT22;38354;52.892;6.148;2023-08-08T09:13:59;16.60;99.90
52435;DHT22;38354;52.892;6.148;2023-08-08T09:16:25;16.60;99.90
52435;DHT22;38354;52.892;6.148;2023-08-08T09:18:51;16.60;99.90
52435;DHT22;38354;52.892;6.148;2023-08-08T09:21:18;16.70;99.90
52435;DHT22;38354;52.892;6.148;2023-08-08T09:23:43;16.80;99.90
52435;DHT22;38354;52.892;6.148;2023-08-08T09:26:09;16.80;99.90
52435;DHT22;38354;52.892;6.148;2023-08-08T09:28:35;16.80;99.90
52435;DHT22;38354;52.892;6.148;2023-08-08T09:31:04;16.90;99.90
52435;DHT22;38354;52.892;6.148;2023-08-08T09:33:29;16.90;99.90
52435;DHT22;38354;52.892;6.148;2023-08-08T09:35:55;17.00;99.90
52435;DHT22;38354;52.892;6.148;2023-08-08T09:38:21;17.00;99.90
52435;DHT22;38354;52.892;6.148;2023-08-08T09:40:46;16.90;99.90
52435;DHT22;38354;52.892;6.148;2023-08-08T09:43:12;16.90;99.90
52435;DHT22;38354;52.892;6.148;2023-08-08T09:45:38;17.00;99.90
52435;DHT22;38354;52.892;6.148;2023-08-08T09:48:05;17.10;99.90
52435;DHT22;38354;52.892;6.148;2023-08-08T09:50:31;17.30;99.90
52435;DHT22;38354;52.892;6.148;2023-08-08T09:52:58;17.50;99.90
52435;DHT22;38354;52.892;6.148;2023-08-08T09:55:23;17.70;99.90
52435;DHT22;38354;52.892;6.148;2023-08-08T09:57:49;17.60;99.90
52435;DHT22;38354;52.892;6.148;2023-08-08T10:00:16;17.60;99.90
52435;DHT22;38354;52.892;6.148;2023-08-08T10:02:42;17.50;99.90
52435;DHT22;38354;52.892;6.148;2023-08-08T10:05:08;17.50;99.90
52435;DHT22;38354;52.892;6.148;2023-08-08T10:07:35;17.50;99.90
52435;DHT22;38354;52.892;6.148;2023-08-08T10:10:00;17.40;99.90
52435;DHT22;38354;52.892;6.148;2023-08-08T10:12:26;17.50;99.90
52435;DHT22;38354;52.892;6.148;2023-08-08T10:14:51;17.60;99.90
52435;DHT22;38354;52.892;6.148;2023-08-08T10:17:17;17.70;99.90
52435;DHT22;38354;52.892;6.148;2023-08-08T10:19:51;17.70;99.90
52435;DHT22;38354;52.892;6.148;2023-08-08T10:22:19;17.50;99.90
52435;DHT22;38354;52.892;6.148;2023-08-08T10:24:46;17.30;99.90
52435;DHT22;38354;52.892;6.148;2023-08-08T10:27:13;17.20;99.90
52435;DHT22;38354;52.892;6.148;2023-08-08T10:29:40;17.10;99.90
52435;DHT22;38354;52.892;6.148;2023-08-08T10:32:06;17.10;99.90
52435;DHT22;38354;52.892;6.148;2023-08-08T10:34:42;17.20;99.90
52435;DHT22;38354;52.892;6.148;2023-08-08T10:39:37;17.50;99.90
52435;DHT22;38354;52.892;6.148;2023-08-08T10:42:03;17.60;99.90
52435;DHT22;38354;52.892;6.148;2023-08-08T10:44:30;17.80;99.90
52435;DHT22;38354;52.892;6.148;2023-08-08T10:46:56;17.90;99.90
52435;DHT22;38354;52.892;6.148;2023-08-08T10:49:21;18.10;99.90
52435;DHT22;38354;52.892;6.148;2023-08-08T10:51:47;18.10;99.90
52435;DHT22;38354;52.892;6.148;2023-08-08T10:54:22;18.20;99.90
52435;DHT22;38354;52.892;6.148;2023-08-08T10:56:51;18.30;99.90
52435;DHT22;38354;52.892;6.148;2023-08-08T10:59:18;18.40;99.90
52435;DHT22;38354;52.892;6.148;2023-08-08T11:01:48;18.50;99.90
52435;DHT22;38354;52.892;6.148;2023-08-08T11:04:15;18.70;99.90
52435;DHT22;38354;52.892;6.148;2023-08-08T11:06:41;18.90;99.90
52435;DHT22;38354;52.892;6.148;2023-08-08T11:09:06;19.00;99.90
52435;DHT22;38354;52.892;6.148;2023-08-08T11:11:39;18.70;99.90
52435;DHT22;38354;52.892;6.148;2023-08-08T11:14:08;18.90;99.90
52435;DHT22;38354;52.892;6.148;2023-08-08T11:16:34;18.80;99.90
52435;DHT22;38354;52.892;6.148;2023-08-08T11:19:00;18.90;99.90
52435;DHT22;38354;52.892;6.148;2023-08-08T11:21:25;19.00;99.90
52435;DHT22;38354;52.892;6.148;2023-08-08T11:23:51;18.80;99.90
52435;DHT22;38354;52.892;6.148;2023-08-08T11:26:17;18.90;99.90
52435;DHT22;38354;52.892;6.148;2023-08-08T11:28:48;18.70;99.90
52435;DHT22;38354;52.892;6.148;2023-08-08T11:31:14;18.60;99.90
52435;DHT22;38354;52.892;6.148;2023-08-08T11:33:40;18.40;99.90
52435;DHT22;38354;52.892;6.148;2023-08-08T11:36:05;18.30;99.90
52435;DHT22;38354;52.892;6.148;2023-08-08T11:38:31;18.30;99.90
52435;DHT22;38354;52.892;6.148;2023-08-08T11:40:58;18.40;99.90
52435;DHT22;38354;52.892;6.148;2023-08-08T11:43:24;18.40;99.90
52435;DHT22;38354;52.892;6.148;2023-08-08T11:45:50;18.40;99.90
52435;DHT22;38354;52.892;6.148;2023-08-08T11:48:20;18.40;99.90
52435;DHT22;38354;52.892;6.148;2023-08-08T11:50:45;18.50;99.90
52435;DHT22;38354;52.892;6.148;2023-08-08T11:53:12;18.50;99.90
52435;DHT22;38354;52.892;6.148;2023-08-08T11:55:37;18.50;99.90
52435;DHT22;38354;52.892;6.148;2023-08-08T11:58:03;18.70;99.90
52435;DHT22;38354;52.892;6.148;2023-08-08T12:00:30;18.70;99.90
52435;DHT22;38354;52.892;6.148;2023-08-08T12:02:56;18.70;99.90
52435;DHT22;38354;52.892;6.148;2023-08-08T12:05:23;18.70;99.90
52435;DHT22;38354;52.892;6.148;2023-08-08T12:07:48;18.70;99.90
52435;DHT22;38354;52.892;6.148;2023-08-08T12:10:15;18.70;99.90
52435;DHT22;38354;52.892;6.148;2023-08-08T12:12:43;18.70;99.90
52435;DHT22;38354;52.892;6.148;2023-08-08T12:15:08;18.60;99.90
52435;DHT22;38354;52.892;6.148;2023-08-08T12:17:34;18.60;99.90
52435;DHT22;38354;52.892;6.148;2023-08-08T12:20:02;18.60;99.90
52435;DHT22;38354;52.892;6.148;2023-08-08T12:22:29;18.60;99.90
52435;DHT22;38354;52.892;6.148;2023-08-08T12:24:54;18.50;99.90
52435;DHT22;38354;52.892;6.148;2023-08-08T12:27:20;18.40;99.90
52435;DHT22;38354;52.892;6.148;2023-08-08T12:29:46;18.40;99.90
52435;DHT22;38354;52.892;6.148;2023-08-08T12:32:11;18.30;99.90
52435;DHT22;38354;52.892;6.148;2023-08-08T12:34:37;18.40;99.90
52435;DHT22;38354;52.892;6.148;2023-08-08T12:37:03;18.40;99.90
52435;DHT22;38354;52.892;6.148;2023-08-08T12:39:29;18.50;99.90
52435;DHT22;38354;52.892;6.148;2023-08-08T12:41:54;18.70;99.90
52435;DHT22;38354;52.892;6.148;2023-08-08T12:44:20;18.70;99.90
52435;DHT22;38354;52.892;6.148;2023-08-08T12:46:45;18.70;99.90
52435;DHT22;38354;52.892;6.148;2023-08-08T12:49:11;18.70;99.90
52435;DHT22;38354;52.892;6.148;2023-08-08T12:51:37;18.70;99.90
52435;DHT22;38354;52.892;6.148;2023-08-08T12:54:02;18.70;99.90
52435;DHT22;38354;52.892;6.148;2023-08-08T12:56:28;18.80;99.90
52435;DHT22;38354;52.892;6.148;2023-08-08T12:58:54;18.90;99.90
52435;DHT22;38354;52.892;6.148;2023-08-08T13:01:19;18.80;99.90
52435;DHT22;38354;52.892;6.148;2023-08-08T13:03:45;18.90;99.90
52435;DHT22;38354;52.892;6.148;2023-08-08T13:06:10;18.90;99.90
52435;DHT22;38354;52.892;6.148;2023-08-08T13:08:37;18.70;99.90
52435;DHT22;38354;52.892;6.148;2023-08-08T13:11:03;18.50;99.90
52435;DHT22;38354;52.892;6.148;2023-08-08T13:13:28;18.60;99.90
52435;DHT22;38354;52.892;6.148;2023-08-08T13:15:54;18.50;99.90
52435;DHT22;38354;52.892;6.148;2023-08-08T13:18:19;18.60;99.90
52435;DHT22;38354;52.892;6.148;2023-08-08T13:20:45;18.60;99.90
52435;DHT22;38354;52.892;6.148;2023-08-08T13:23:10;18.60;99.90
52435;DHT22;38354;52.892;6.148;2023-08-08T13:25:36;18.80;99.90
52435;DHT22;38354;52.892;6.148;2023-08-08T13:28:02;18.80;99.90
52435;DHT22;38354;52.892;6.148;2023-08-08T13:30:28;18.80;99.90
52435;DHT22;38354;52.892;6.148;2023-08-08T13:32:54;18.80;99.90
52435;DHT22;38354;52.892;6.148;2023-08-08T13:35:19;18.60;99.90
52435;DHT22;38354;52.892;6.148;2023-08-08T13:37:45;18.60;99.90
52435;DHT22;38354;52.892;6.148;2023-08-08T13:40:15;18.60;99.90
52435;DHT22;38354;52.892;6.148;2023-08-08T13:42:40;18.70;99.90
52435;DHT22;38354;52.892;6.148;2023-08-08T13:45:06;18.70;99.90
52435;DHT22;38354;52.892;6.148;2023-08-08T13:47:32;18.70;99.90
52435;DHT22;38354;52.892;6.148;2023-08-08T13:49:57;18.60;99.90
52435;DHT22;38354;52.892;6.148;2023-08-08T13:52:23;18.40;99.90
52435;DHT22;38354;52.892;6.148;2023-08-08T13:54:49;18.20;99.90
52435;DHT22;38354;52.892;6.148;2023-08-08T13:57:15;18.10;99.90
52435;DHT22;38354;52.892;6.148;2023-08-08T13:59:40;17.90;99.90
52435;DHT22;38354;52.892;6.148;2023-08-08T14:02:06;17.80;99.90
52435;DHT22;38354;52.892;6.148;2023-08-08T14:04:31;17.70;99.90
52435;DHT22;38354;52.892;6.148;2023-08-08T14:06:57;17.80;99.90
52435;DHT22;38354;52.892;6.148;2023-08-08T14:09:22;17.70;99.90
52435;DHT22;38354;52.892;6.148;2023-08-08T14:11:48;17.60;99.90
52435;DHT22;38354;52.892;6.148;2023-08-08T14:14:13;17.60;99.90
52435;DHT22;38354;52.892;6.148;2023-08-08T14:16:39;17.60;99.90
52435;DHT22;38354;52.892;6.148;2023-08-08T14:19:04;17.50;99.90
52435;DHT22;38354;52.892;6.148;2023-08-08T14:21:30;17.50;99.90
52435;DHT22;38354;52.892;6.148;2023-08-08T14:23:56;17.40;99.90
52435;DHT22;38354;52.892;6.148;2023-08-08T14:26:21;17.30;99.90
52435;DHT22;38354;52.892;6.148;2023-08-08T14:28:47;17.30;99.90
52435;DHT22;38354;52.892;6.148;2023-08-08T14:31:12;17.40;99.90
52435;DHT22;38354;52.892;6.148;2023-08-08T14:33:38;17.50;99.90
52435;DHT22;38354;52.892;6.148;2023-08-08T14:36:03;17.50;99.90
52435;DHT22;38354;52.892;6.148;2023-08-08T14:38:33;17.80;99.90
52435;DHT22;38354;52.892;6.148;2023-08-08T14:40:59;18.00;99.90
52435;DHT22;38354;52.892;6.148;2023-08-08T14:43:25;18.00;99.90
52435;DHT22;38354;52.892;6.148;2023-08-08T14:45:50;18.00;99.90
52435;DHT22;38354;52.892;6.148;2023-08-08T14:48:16;18.10;99.90
52435;DHT22;38354;52.892;6.148;2023-08-08T14:50:42;18.20;99.90
52435;DHT22;38354;52.892;6.148;2023-08-08T14:53:08;18.30;99.90
52435;DHT22;38354;52.892;6.148;2023-08-08T14:55:33;18.40;99.90
52435;DHT22;38354;52.892;6.148;2023-08-08T14:57:59;18.40;99.90
52435;DHT22;38354;52.892;6.148;2023-08-08T15:00:24;18.50;99.90
52435;DHT22;38354;52.892;6.148;2023-08-08T15:02:50;18.40;99.90
52435;DHT22;38354;52.892;6.148;2023-08-08T15:05:15;18.30;99.90
52435;DHT22;38354;52.892;6.148;2023-08-08T15:07:41;18.20;99.90
52435;DHT22;38354;52.892;6.148;2023-08-08T15:10:07;18.10;99.90
52435;DHT22;38354;52.892;6.148;2023-08-08T15:12:32;18.10;99.90
52435;DHT22;38354;52.892;6.148;2023-08-08T15:14:58;18.10;99.90
52435;DHT22;38354;52.892;6.148;2023-08-08T15:17:23;18.00;99.90
52435;DHT22;38354;52.892;6.148;2023-08-08T15:19:49;18.00;99.90
52435;DHT22;38354;52.892;6.148;2023-08-08T15:22:14;17.90;99.90
52435;DHT22;38354;52.892;6.148;2023-08-08T15:24:40;17.90;99.90
52435;DHT22;38354;52.892;6.148;2023-08-08T15:27:06;18.00;99.90
52435;DHT22;38354;52.892;6.148;2023-08-08T15:29:31;18.10;99.90
52435;DHT22;38354;52.892;6.148;2023-08-08T15:32:04;18.10;99.90
52435;DHT22;38354;52.892;6.148;2023-08-08T15:34:29;18.20;99.90
52435;DHT22;38354;52.892;6.148;2023-08-08T15:36:55;18.40;99.90
52435;DHT22;38354;52.892;6.148;2023-08-08T15:39:23;18.40;99.90
52435;DHT22;38354;52.892;6.148;2023-08-08T15:41:49;18.30;99.90
52435;DHT22;38354;52.892;6.148;2023-08-08T15:44:14;18.10;99.90
52435;DHT22;38354;52.892;6.148;2023-08-08T15:46:40;18.20;99.90
52435;DHT22;38354;52.892;6.148;2023-08-08T15:49:06;18.30;99.90
52435;DHT22;38354;52.892;6.148;2023-08-08T15:51:38;18.30;99.90
52435;DHT22;38354;52.892;6.148;2023-08-08T15:54:04;18.40;99.90
52435;DHT22;38354;52.892;6.148;2023-08-08T15:56:30;18.40;99.90
52435;DHT22;38354;52.892;6.148;2023-08-08T15:58:57;18.20;99.90
52435;DHT22;38354;52.892;6.148;2023-08-08T16:01:23;18.10;99.90
52435;DHT22;38354;52.892;6.148;2023-08-08T16:03:48;18.10;99.90
52435;DHT22;38354;52.892;6.148;2023-08-08T16:06:14;18.00;99.90
52435;DHT22;38354;52.892;6.148;2023-08-08T16:08:39;18.10;99.90
52435;DHT22;38354;52.892;6.148;2023-08-08T16:11:05;18.10;99.90
52435;DHT22;38354;52.892;6.148;2023-08-08T16:13:30;18.10;99.90
52435;DHT22;38354;52.892;6.148;2023-08-08T16:15:56;18.10;99.90
52435;DHT22;38354;52.892;6.148;2023-08-08T16:18:21;18.10;99.90
52435;DHT22;38354;52.892;6.148;2023-08-08T16:20:47;18.00;99.90
52435;DHT22;38354;52.892;6.148;2023-08-08T16:23:12;17.90;99.90
52435;DHT22;38354;52.892;6.148;2023-08-08T16:25:38;17.70;99.90
52435;DHT22;38354;52.892;6.148;2023-08-08T16:28:04;17.80;99.90
52435;DHT22;38354;52.892;6.148;2023-08-08T16:30:29;17.80;99.90
52435;DHT22;38354;52.892;6.148;2023-08-08T16:32:55;17.80;99.90
52435;DHT22;38354;52.892;6.148;2023-08-08T16:35:20;18.00;99.90
52435;DHT22;38354;52.892;6.148;2023-08-08T16:37:46;18.10;99.90
52435;DHT22;38354;52.892;6.148;2023-08-08T16:40:11;18.10;99.90
52435;DHT22;38354;52.892;6.148;2023-08-08T16:42:37;18.10;99.90
52435;DHT22;38354;52.892;6.148;2023-08-08T16:45:03;18.10;99.90
52435;DHT22;38354;52.892;6.148;2023-08-08T16:47:29;18.00;99.90
52435;DHT22;38354;52.892;6.148;2023-08-08T16:49:55;17.90;99.90
52435;DHT22;38354;52.892;6.148;2023-08-08T16:52:20;17.80;99.90
52435;DHT22;38354;52.892;6.148;2023-08-08T16:54:46;17.80;99.90
52435;DHT22;38354;52.892;6.148;2023-08-08T16:57:11;17.80;99.90
52435;DHT22;38354;52.892;6.148;2023-08-08T16:59:37;17.70;99.90
52435;DHT22;38354;52.892;6.148;2023-08-08T17:02:02;17.70;99.90
52435;DHT22;38354;52.892;6.148;2023-08-08T17:04:28;17.60;99.90
52435;DHT22;38354;52.892;6.148;2023-08-08T17:06:54;17.60;99.90
52435;DHT22;38354;52.892;6.148;2023-08-08T17:09:19;17.60;99.90
52435;DHT22;38354;52.892;6.148;2023-08-08T17:11:45;17.70;99.90
52435;DHT22;38354;52.892;6.148;2023-08-08T17:14:10;17.60;99.90
52435;DHT22;38354;52.892;6.148;2023-08-08T17:16:36;17.50;99.90
52435;DHT22;38354;52.892;6.148;2023-08-08T17:19:03;17.50;99.90
52435;DHT22;38354;52.892;6.148;2023-08-08T17:21:29;17.40;99.90
52435;DHT22;38354;52.892;6.148;2023-08-08T17:23:54;17.40;99.90
52435;DHT22;38354;52.892;6.148;2023-08-08T17:26:20;17.30;99.90
52435;DHT22;38354;52.892;6.148;2023-08-08T17:28:45;17.20;99.90
52435;DHT22;38354;52.892;6.148;2023-08-08T17:31:12;17.30;99.90
52435;DHT22;38354;52.892;6.148;2023-08-08T17:33:38;17.30;99.90
52435;DHT22;38354;52.892;6.148;2023-08-08T17:36:04;17.40;99.90
52435;DHT22;38354;52.892;6.148;2023-08-08T17:38:29;17.40;99.90
52435;DHT22;38354;52.892;6.148;2023-08-08T17:40:55;17.40;99.90
52435;DHT22;38354;52.892;6.148;2023-08-08T17:43:20;17.30;99.90
52435;DHT22;38354;52.892;6.148;2023-08-08T17:45:46;17.20;99.90
52435;DHT22;38354;52.892;6.148;2023-08-08T17:48:11;17.10;99.90
52435;DHT22;38354;52.892;6.148;2023-08-08T17:50:37;17.10;99.90
52435;DHT22;38354;52.892;6.148;2023-08-08T17:53:03;17.10;99.90
52435;DHT22;38354;52.892;6.148;2023-08-08T17:55:29;17.10;99.90
52435;DHT22;38354;52.892;6.148;2023-08-08T17:57:54;17.00;99.90
52435;DHT22;38354;52.892;6.148;2023-08-08T18:00:20;16.90;99.90
52435;DHT22;38354;52.892;6.148;2023-08-08T18:02:46;16.80;99.90
52435;DHT22;38354;52.892;6.148;2023-08-08T18:05:11;16.70;99.90
52435;DHT22;38354;52.892;6.148;2023-08-08T18:07:38;16.60;99.90
52435;DHT22;38354;52.892;6.148;2023-08-08T18:10:04;16.50;99.90
52435;DHT22;38354;52.892;6.148;2023-08-08T18:12:30;16.50;99.90
52435;DHT22;38354;52.892;6.148;2023-08-08T18:14:56;16.40;99.90
52435;DHT22;38354;52.892;6.148;2023-08-08T18:17:21;16.40;99.90
52435;DHT22;38354;52.892;6.148;2023-08-08T18:19:50;16.30;99.90
52435;DHT22;38354;52.892;6.148;2023-08-08T18:22:16;16.30;99.90
52435;DHT22;38354;52.892;6.148;2023-08-08T18:24:41;16.30;99.90